sensor_id;sensor_type;location;lat;lon;timestamp;temperature;humidity
65058;HTU21D;51644;51.068;5.860;2023-06-10T00:00:30;24.34;50.98
65058;HTU21D;51644;51.068;5.860;2023-06-10T00:01:30;24.33;50.99
65058;HTU21D;51644;51.068;5.860;2023-06-10T00:02:28;24.31;51.02
65058;HTU21D;51644;51.068;5.860;2023-06-10T00:03:27;24.31;51.01
65058;HTU21D;51644;51.068;5.860;2023-06-10T00:04:27;24.29;51.16
65058;HTU21D;51644;51.068;5.860;2023-06-10T00:05:25;24.29;51.15
65058;HTU21D;51644;51.068;5.860;2023-06-10T00:06:28;24.28;51.31
65058;HTU21D;51644;51.068;5.860;2023-06-10T00:07:34;24.25;51.33
65058;HTU21D;51644;51.068;5.860;2023-06-10T00:08:36;24.26;51.33
65058;HTU21D;51644;51.068;5.860;2023-06-10T00:09:36;24.24;51.42
65058;HTU21D;51644;51.068;5.860;2023-06-10T00:10:37;24.20;51.47
65058;HTU21D;51644;51.068;5.860;2023-06-10T00:11:38;24.17;51.40
65058;HTU21D;51644;51.068;5.860;2023-06-10T00:12:37;24.15;51.43
65058;HTU21D;51644;51.068;5.860;2023-06-10T00:13:36;24.14;51.54
65058;HTU21D;51644;51.068;5.860;2023-06-10T00:14:37;24.12;51.64
65058;HTU21D;51644;51.068;5.860;2023-06-10T00:15:37;24.12;51.69
65058;HTU21D;51644;51.068;5.860;2023-06-10T00:16:36;24.10;51.75
65058;HTU21D;51644;51.068;5.860;2023-06-10T00:17:37;24.09;51.92
65058;HTU21D;51644;51.068;5.860;2023-06-10T00:18:37;24.04;51.96
65058;HTU21D;51644;51.068;5.860;2023-06-10T00:19:37;24.03;51.86
65058;HTU21D;51644;51.068;5.860;2023-06-10T00:20:39;24.04;51.74
65058;HTU21D;51644;51.068;5.860;2023-06-10T00:21:39;24.05;51.78
65058;HTU21D;51644;51.068;5.860;2023-06-10T00:22:43;24.03;51.97
65058;HTU21D;51644;51.068;5.860;2023-06-10T00:23:44;24.00;52.24
65058;HTU21D;51644;51.068;5.860;2023-06-10T00:24:42;23.98;52.39
65058;HTU21D;51644;51.068;5.860;2023-06-10T00:25:41;23.95;52.40
65058;HTU21D;51644;51.068;5.860;2023-06-10T00:26:40;23.92;52.37
65058;HTU21D;51644;51.068;5.860;2023-06-10T00:27:40;23.91;52.40
65058;HTU21D;51644;51.068;5.860;2023-06-10T00:28:38;23.89;52.42
65058;HTU21D;51644;51.068;5.860;2023-06-10T00:29:37;23.88;52.72
65058;HTU21D;51644;51.068;5.860;2023-06-10T00:30:40;23.84;53.12
65058;HTU21D;51644;51.068;5.860;2023-06-10T00:31:44;23.80;53.28
65058;HTU21D;51644;51.068;5.860;2023-06-10T00:32:43;23.77;53.23
65058;HTU21D;51644;51.068;5.860;2023-06-10T00:33:44;23.75;53.33
65058;HTU21D;51644;51.068;5.860;2023-06-10T00:34:43;23.73;53.44
65058;HTU21D;51644;51.068;5.860;2023-06-10T00:35:42;23.71;53.52
65058;HTU21D;51644;51.068;5.860;2023-06-10T00:36:40;23.68;53.65
65058;HTU21D;51644;51.068;5.860;2023-06-10T00:37:39;23.65;53.88
65058;HTU21D;51644;51.068;5.860;2023-06-10T00:38:38;23.62;54.01
65058;HTU21D;51644;51.068;5.860;2023-06-10T00:39:36;23.57;54.10
65058;HTU21D;51644;51.068;5.860;2023-06-10T00:40:40;23.55;54.24
65058;HTU21D;51644;51.068;5.860;2023-06-10T00:41:41;23.52;54.46
65058;HTU21D;51644;51.068;5.860;2023-06-10T00:42:43;23.47;54.53
65058;HTU21D;51644;51.068;5.860;2023-06-10T00:43:41;23.44;54.48
65058;HTU21D;51644;51.068;5.860;2023-06-10T00:44:40;23.44;54.58
65058;HTU21D;51644;51.068;5.860;2023-06-10T00:45:38;23.42;54.80
65058;HTU21D;51644;51.068;5.860;2023-06-10T00:46:38;23.41;54.91
65058;HTU21D;51644;51.068;5.860;2023-06-10T00:47:37;23.39;54.94
65058;HTU21D;51644;51.068;5.860;2023-06-10T00:48:36;23.35;55.02
65058;HTU21D;51644;51.068;5.860;2023-06-10T00:49:35;23.32;55.10
65058;HTU21D;51644;51.068;5.860;2023-06-10T00:50:33;23.31;55.23
65058;HTU21D;51644;51.068;5.860;2023-06-10T00:51:33;23.29;55.33
65058;HTU21D;51644;51.068;5.860;2023-06-10T00:52:35;23.27;55.44
65058;HTU21D;51644;51.068;5.860;2023-06-10T00:53:36;23.26;55.45
65058;HTU21D;51644;51.068;5.860;2023-06-10T00:54:38;23.23;55.47
65058;HTU21D;51644;51.068;5.860;2023-06-10T00:55:37;23.20;55.58
65058;HTU21D;51644;51.068;5.860;2023-06-10T00:56:36;23.18;55.66
65058;HTU21D;51644;51.068;5.860;2023-06-10T00:57:36;23.18;55.49
65058;HTU21D;51644;51.068;5.860;2023-06-10T00:58:36;23.17;55.49
65058;HTU21D;51644;51.068;5.860;2023-06-10T00:59:35;23.17;55.47
65058;HTU21D;51644;51.068;5.860;2023-06-10T01:00:34;23.15;55.49
65058;HTU21D;51644;51.068;5.860;2023-06-10T01:01:35;23.14;55.71
65058;HTU21D;51644;51.068;5.860;2023-06-10T01:02:36;23.11;55.81
65058;HTU21D;51644;51.068;5.860;2023-06-10T01:03:34;23.08;55.91
65058;HTU21D;51644;51.068;5.860;2023-06-10T01:04:35;23.07;55.88
65058;HTU21D;51644;51.068;5.860;2023-06-10T01:05:36;23.05;55.97
65058;HTU21D;51644;51.068;5.860;2023-06-10T01:08:09;23.00;56.31
65058;HTU21D;51644;51.068;5.860;2023-06-10T01:09:38;22.95;56.31
65058;HTU21D;51644;51.068;5.860;2023-06-10T01:10:47;22.92;56.54
65058;HTU21D;51644;51.068;5.860;2023-06-10T01:11:53;22.88;56.57
65058;HTU21D;51644;51.068;5.860;2023-06-10T01:13:07;22.86;56.44
65058;HTU21D;51644;51.068;5.860;2023-06-10T01:14:09;22.84;56.45
65058;HTU21D;51644;51.068;5.860;2023-06-10T01:15:09;22.82;56.39
65058;HTU21D;51644;51.068;5.860;2023-06-10T01:16:09;22.80;56.31
65058;HTU21D;51644;51.068;5.860;2023-06-10T01:17:08;22.81;56.15
65058;HTU21D;51644;51.068;5.860;2023-06-10T01:18:10;22.82;56.00
65058;HTU21D;51644;51.068;5.860;2023-06-10T01:19:13;22.80;56.13
65058;HTU21D;51644;51.068;5.860;2023-06-10T01:20:13;22.79;56.22
65058;HTU21D;51644;51.068;5.860;2023-06-10T01:21:20;22.76;56.24
65058;HTU21D;51644;51.068;5.860;2023-06-10T01:22:19;22.73;56.31
65058;HTU21D;51644;51.068;5.860;2023-06-10T01:23:18;22.71;56.45
65058;HTU21D;51644;51.068;5.860;2023-06-10T01:24:19;22.70;56.51
65058;HTU21D;51644;51.068;5.860;2023-06-10T01:25:18;22.69;56.60
65058;HTU21D;51644;51.068;5.860;2023-06-10T01:26:22;22.69;56.53
65058;HTU21D;51644;51.068;5.860;2023-06-10T01:27:28;22.67;56.43
65058;HTU21D;51644;51.068;5.860;2023-06-10T01:28:33;22.67;56.45
65058;HTU21D;51644;51.068;5.860;2023-06-10T01:29:42;22.65;56.44
65058;HTU21D;51644;51.068;5.860;2023-06-10T01:32:05;22.64;56.42
65058;HTU21D;51644;51.068;5.860;2023-06-10T01:33:09;22.64;56.28
65058;HTU21D;51644;51.068;5.860;2023-06-10T01:34:15;22.65;56.23
65058;HTU21D;51644;51.068;5.860;2023-06-10T01:35:15;22.62;56.23
65058;HTU21D;51644;51.068;5.860;2023-06-10T01:36:16;22.60;56.29
65058;HTU21D;51644;51.068;5.860;2023-06-10T01:37:18;22.57;56.28
65058;HTU21D;51644;51.068;5.860;2023-06-10T01:38:19;22.57;56.41
65058;HTU21D;51644;51.068;5.860;2023-06-10T01:39:23;22.54;56.45
65058;HTU21D;51644;51.068;5.860;2023-06-10T01:40:23;22.51;56.52
65058;HTU21D;51644;51.068;5.860;2023-06-10T01:41:38;22.48;56.60
65058;HTU21D;51644;51.068;5.860;2023-06-10T01:42:37;22.47;56.67
65058;HTU21D;51644;51.068;5.860;2023-06-10T01:43:38;22.47;56.74
65058;HTU21D;51644;51.068;5.860;2023-06-10T01:44:39;22.46;56.77
65058;HTU21D;51644;51.068;5.860;2023-06-10T01:45:40;22.43;56.74
65058;HTU21D;51644;51.068;5.860;2023-06-10T01:46:40;22.43;56.68
65058;HTU21D;51644;51.068;5.860;2023-06-10T01:47:38;22.43;56.70
65058;HTU21D;51644;51.068;5.860;2023-06-10T01:48:38;22.41;56.82
65058;HTU21D;51644;51.068;5.860;2023-06-10T01:49:36;22.39;56.89
65058;HTU21D;51644;51.068;5.860;2023-06-10T01:50:35;22.37;57.01
65058;HTU21D;51644;51.068;5.860;2023-06-10T01:51:33;22.35;57.06
65058;HTU21D;51644;51.068;5.860;2023-06-10T01:52:32;22.34;57.11
65058;HTU21D;51644;51.068;5.860;2023-06-10T01:53:31;22.31;57.16
65058;HTU21D;51644;51.068;5.860;2023-06-10T01:54:29;22.29;57.26
65058;HTU21D;51644;51.068;5.860;2023-06-10T01:55:28;22.28;57.31
65058;HTU21D;51644;51.068;5.860;2023-06-10T01:56:26;22.24;57.37
65058;HTU21D;51644;51.068;5.860;2023-06-10T01:57:25;22.23;57.36
65058;HTU21D;51644;51.068;5.860;2023-06-10T01:58:25;22.22;57.39
65058;HTU21D;51644;51.068;5.860;2023-06-10T01:59:24;22.19;57.54
65058;HTU21D;51644;51.068;5.860;2023-06-10T02:00:22;22.16;57.58
65058;HTU21D;51644;51.068;5.860;2023-06-10T02:01:21;22.11;57.73
65058;HTU21D;51644;51.068;5.860;2023-06-10T02:02:19;22.09;57.74
65058;HTU21D;51644;51.068;5.860;2023-06-10T02:03:20;22.05;57.90
65058;HTU21D;51644;51.068;5.860;2023-06-10T02:04:19;22.02;57.91
65058;HTU21D;51644;51.068;5.860;2023-06-10T02:05:17;21.98;58.03
65058;HTU21D;51644;51.068;5.860;2023-06-10T02:06:16;21.96;58.04
65058;HTU21D;51644;51.068;5.860;2023-06-10T02:07:15;21.95;58.14
65058;HTU21D;51644;51.068;5.860;2023-06-10T02:08:14;21.93;58.24
65058;HTU21D;51644;51.068;5.860;2023-06-10T02:09:13;21.91;58.29
65058;HTU21D;51644;51.068;5.860;2023-06-10T02:10:11;21.89;58.29
65058;HTU21D;51644;51.068;5.860;2023-06-10T02:11:10;21.91;58.29
65058;HTU21D;51644;51.068;5.860;2023-06-10T02:12:09;21.91;58.35
65058;HTU21D;51644;51.068;5.860;2023-06-10T02:13:08;21.90;58.35
65058;HTU21D;51644;51.068;5.860;2023-06-10T02:14:07;21.89;58.36
65058;HTU21D;51644;51.068;5.860;2023-06-10T02:15:05;21.88;58.33
65058;HTU21D;51644;51.068;5.860;2023-06-10T02:16:04;21.89;58.32
65058;HTU21D;51644;51.068;5.860;2023-06-10T02:17:04;21.87;58.32
65058;HTU21D;51644;51.068;5.860;2023-06-10T02:18:03;21.85;58.41
65058;HTU21D;51644;51.068;5.860;2023-06-10T02:19:01;21.84;58.41
65058;HTU21D;51644;51.068;5.860;2023-06-10T02:20:01;21.83;58.38
65058;HTU21D;51644;51.068;5.860;2023-06-10T02:21:04;21.84;58.35
65058;HTU21D;51644;51.068;5.860;2023-06-10T02:22:03;21.85;58.35
65058;HTU21D;51644;51.068;5.860;2023-06-10T02:23:04;21.85;58.30
65058;HTU21D;51644;51.068;5.860;2023-06-10T02:24:08;21.85;58.22
65058;HTU21D;51644;51.068;5.860;2023-06-10T02:25:08;21.88;58.22
65058;HTU21D;51644;51.068;5.860;2023-06-10T02:26:07;21.85;58.19
65058;HTU21D;51644;51.068;5.860;2023-06-10T02:27:05;21.84;58.20
65058;HTU21D;51644;51.068;5.860;2023-06-10T02:28:07;21.83;58.22
65058;HTU21D;51644;51.068;5.860;2023-06-10T02:29:06;21.82;58.26
65058;HTU21D;51644;51.068;5.860;2023-06-10T02:30:05;21.80;58.31
65058;HTU21D;51644;51.068;5.860;2023-06-10T02:31:07;21.80;58.40
65058;HTU21D;51644;51.068;5.860;2023-06-10T02:32:06;21.78;58.48
65058;HTU21D;51644;51.068;5.860;2023-06-10T02:33:05;21.74;58.57
65058;HTU21D;51644;51.068;5.860;2023-06-10T02:34:03;21.69;58.68
65058;HTU21D;51644;51.068;5.860;2023-06-10T02:35:03;21.66;58.83
65058;HTU21D;51644;51.068;5.860;2023-06-10T02:36:07;21.62;58.91
65058;HTU21D;51644;51.068;5.860;2023-06-10T02:37:06;21.59;59.02
65058;HTU21D;51644;51.068;5.860;2023-06-10T02:38:04;21.55;59.18
65058;HTU21D;51644;51.068;5.860;2023-06-10T02:39:05;21.54;59.36
65058;HTU21D;51644;51.068;5.860;2023-06-10T02:40:05;21.52;59.36
65058;HTU21D;51644;51.068;5.860;2023-06-10T02:41:04;21.49;59.49
65058;HTU21D;51644;51.068;5.860;2023-06-10T02:42:03;21.47;59.49
65058;HTU21D;51644;51.068;5.860;2023-06-10T02:43:02;21.45;59.55
65058;HTU21D;51644;51.068;5.860;2023-06-10T02:44:02;21.44;59.61
65058;HTU21D;51644;51.068;5.860;2023-06-10T02:45:01;21.42;59.54
65058;HTU21D;51644;51.068;5.860;2023-06-10T02:46:07;21.42;59.51
65058;HTU21D;51644;51.068;5.860;2023-06-10T02:47:06;21.44;59.51
65058;HTU21D;51644;51.068;5.860;2023-06-10T02:48:09;21.40;59.62
65058;HTU21D;51644;51.068;5.860;2023-06-10T02:49:07;21.39;59.76
65058;HTU21D;51644;51.068;5.860;2023-06-10T02:50:07;21.36;59.77
65058;HTU21D;51644;51.068;5.860;2023-06-10T02:51:12;21.35;59.88
65058;HTU21D;51644;51.068;5.860;2023-06-10T02:52:14;21.32;59.95
65058;HTU21D;51644;51.068;5.860;2023-06-10T02:53:12;21.30;59.97
65058;HTU21D;51644;51.068;5.860;2023-06-10T02:54:15;21.29;60.04
65058;HTU21D;51644;51.068;5.860;2023-06-10T02:55:14;21.29;60.15
65058;HTU21D;51644;51.068;5.860;2023-06-10T02:56:19;21.28;60.12
65058;HTU21D;51644;51.068;5.860;2023-06-10T02:57:18;21.27;60.12
65058;HTU21D;51644;51.068;5.860;2023-06-10T02:58:17;21.27;60.18
65058;HTU21D;51644;51.068;5.860;2023-06-10T02:59:16;21.27;60.18
65058;HTU21D;51644;51.068;5.860;2023-06-10T03:00:15;21.24;60.18
65058;HTU21D;51644;51.068;5.860;2023-06-10T03:01:16;21.21;60.18
65058;HTU21D;51644;51.068;5.860;2023-06-10T03:02:38;21.16;60.27
65058;HTU21D;51644;51.068;5.860;2023-06-10T03:03:41;21.14;60.33
65058;HTU21D;51644;51.068;5.860;2023-06-10T03:04:42;21.11;60.28
65058;HTU21D;51644;51.068;5.860;2023-06-10T03:05:45;21.13;60.31
65058;HTU21D;51644;51.068;5.860;2023-06-10T03:06:44;21.13;60.38
65058;HTU21D;51644;51.068;5.860;2023-06-10T03:07:52;21.10;60.37
65058;HTU21D;51644;51.068;5.860;2023-06-10T03:08:51;21.09;60.47
65058;HTU21D;51644;51.068;5.860;2023-06-10T03:09:51;21.06;60.46
65058;HTU21D;51644;51.068;5.860;2023-06-10T03:10:50;21.04;60.58
65058;HTU21D;51644;51.068;5.860;2023-06-10T03:11:50;21.01;60.53
65058;HTU21D;51644;51.068;5.860;2023-06-10T03:12:49;21.00;60.54
65058;HTU21D;51644;51.068;5.860;2023-06-10T03:13:53;20.95;60.70
65058;HTU21D;51644;51.068;5.860;2023-06-10T03:14:52;20.93;60.76
65058;HTU21D;51644;51.068;5.860;2023-06-10T03:15:52;20.89;60.93
65058;HTU21D;51644;51.068;5.860;2023-06-10T03:16:53;20.89;60.83
65058;HTU21D;51644;51.068;5.860;2023-06-10T03:17:54;20.90;60.85
65058;HTU21D;51644;51.068;5.860;2023-06-10T03:18:56;20.86;61.05
65058;HTU21D;51644;51.068;5.860;2023-06-10T03:19:58;20.84;60.98
65058;HTU21D;51644;51.068;5.860;2023-06-10T03:20:59;20.83;60.98
65058;HTU21D;51644;51.068;5.860;2023-06-10T03:22:13;20.79;61.23
65058;HTU21D;51644;51.068;5.860;2023-06-10T03:23:17;20.77;61.18
65058;HTU21D;51644;51.068;5.860;2023-06-10T03:24:16;20.71;61.42
65058;HTU21D;51644;51.068;5.860;2023-06-10T03:25:15;20.71;61.41
65058;HTU21D;51644;51.068;5.860;2023-06-10T03:26:20;20.68;61.48
65058;HTU21D;51644;51.068;5.860;2023-06-10T03:27:37;20.68;61.50
65058;HTU21D;51644;51.068;5.860;2023-06-10T03:28:40;20.66;61.49
65058;HTU21D;51644;51.068;5.860;2023-06-10T03:29:41;20.68;61.46
65058;HTU21D;51644;51.068;5.860;2023-06-10T03:30:40;20.69;61.48
65058;HTU21D;51644;51.068;5.860;2023-06-10T03:31:39;20.68;61.55
65058;HTU21D;51644;51.068;5.860;2023-06-10T03:32:39;20.68;61.64
65058;HTU21D;51644;51.068;5.860;2023-06-10T03:33:40;20.69;61.52
65058;HTU21D;51644;51.068;5.860;2023-06-10T03:34:39;20.71;61.37
65058;HTU21D;51644;51.068;5.860;2023-06-10T03:35:38;20.73;61.23
65058;HTU21D;51644;51.068;5.860;2023-06-10T03:36:38;20.75;61.27
65058;HTU21D;51644;51.068;5.860;2023-06-10T03:37:40;20.74;61.29
65058;HTU21D;51644;51.068;5.860;2023-06-10T03:38:42;20.73;61.28
65058;HTU21D;51644;51.068;5.860;2023-06-10T03:39:40;20.70;61.36
65058;HTU21D;51644;51.068;5.860;2023-06-10T03:40:39;20.71;61.43
65058;HTU21D;51644;51.068;5.860;2023-06-10T03:41:40;20.69;61.44
65058;HTU21D;51644;51.068;5.860;2023-06-10T03:42:39;20.66;61.54
65058;HTU21D;51644;51.068;5.860;2023-06-10T03:43:38;20.66;61.48
65058;HTU21D;51644;51.068;5.860;2023-06-10T03:44:41;20.64;61.56
65058;HTU21D;51644;51.068;5.860;2023-06-10T03:45:40;20.64;61.46
65058;HTU21D;51644;51.068;5.860;2023-06-10T03:46:39;20.63;61.51
65058;HTU21D;51644;51.068;5.860;2023-06-10T03:47:38;20.63;61.54
65058;HTU21D;51644;51.068;5.860;2023-06-10T03:48:45;20.62;61.51
65058;HTU21D;51644;51.068;5.860;2023-06-10T03:49:43;20.63;61.53
65058;HTU21D;51644;51.068;5.860;2023-06-10T03:50:43;20.63;61.44
65058;HTU21D;51644;51.068;5.860;2023-06-10T03:51:42;20.64;61.41
65058;HTU21D;51644;51.068;5.860;2023-06-10T03:52:42;20.66;61.41
65058;HTU21D;51644;51.068;5.860;2023-06-10T03:53:41;20.66;61.38
65058;HTU21D;51644;51.068;5.860;2023-06-10T03:54:40;20.68;61.38
65058;HTU21D;51644;51.068;5.860;2023-06-10T03:55:38;20.66;61.46
65058;HTU21D;51644;51.068;5.860;2023-06-10T03:56:37;20.66;61.46
65058;HTU21D;51644;51.068;5.860;2023-06-10T03:57:35;20.68;61.38
65058;HTU21D;51644;51.068;5.860;2023-06-10T03:58:34;20.69;61.35
65058;HTU21D;51644;51.068;5.860;2023-06-10T03:59:33;20.69;61.38
65058;HTU21D;51644;51.068;5.860;2023-06-10T04:00:32;20.68;61.47
65058;HTU21D;51644;51.068;5.860;2023-06-10T04:01:39;20.65;61.45
65058;HTU21D;51644;51.068;5.860;2023-06-10T04:02:39;20.66;61.41
65058;HTU21D;51644;51.068;5.860;2023-06-10T04:03:47;20.69;61.35
65058;HTU21D;51644;51.068;5.860;2023-06-10T04:04:47;20.69;61.31
65058;HTU21D;51644;51.068;5.860;2023-06-10T04:05:46;20.74;61.28
65058;HTU21D;51644;51.068;5.860;2023-06-10T04:06:45;20.75;61.33
65058;HTU21D;51644;51.068;5.860;2023-06-10T04:07:44;20.75;61.31
65058;HTU21D;51644;51.068;5.860;2023-06-10T04:08:43;20.76;61.25
65058;HTU21D;51644;51.068;5.860;2023-06-10T04:09:41;20.77;61.22
65058;HTU21D;51644;51.068;5.860;2023-06-10T04:10:41;20.79;61.11
65058;HTU21D;51644;51.068;5.860;2023-06-10T04:11:39;20.81;61.00
65058;HTU21D;51644;51.068;5.860;2023-06-10T04:12:39;20.83;61.03
65058;HTU21D;51644;51.068;5.860;2023-06-10T04:13:40;20.83;61.12
65058;HTU21D;51644;51.068;5.860;2023-06-10T04:14:41;20.80;61.21
65058;HTU21D;51644;51.068;5.860;2023-06-10T04:15:42;20.79;61.38
65058;HTU21D;51644;51.068;5.860;2023-06-10T04:16:46;20.79;61.57
65058;HTU21D;51644;51.068;5.860;2023-06-10T04:17:44;20.78;61.54
65058;HTU21D;51644;51.068;5.860;2023-06-10T04:18:45;20.76;61.49
65058;HTU21D;51644;51.068;5.860;2023-06-10T04:19:44;20.77;61.42
65058;HTU21D;51644;51.068;5.860;2023-06-10T04:20:45;20.80;61.34
65058;HTU21D;51644;51.068;5.860;2023-06-10T04:21:44;20.80;61.36
65058;HTU21D;51644;51.068;5.860;2023-06-10T04:22:43;20.81;61.23
65058;HTU21D;51644;51.068;5.860;2023-06-10T04:23:43;20.81;61.12
65058;HTU21D;51644;51.068;5.860;2023-06-10T04:24:42;20.81;61.11
65058;HTU21D;51644;51.068;5.860;2023-06-10T04:25:42;20.80;61.20
65058;HTU21D;51644;51.068;5.860;2023-06-10T04:26:40;20.79;61.33
65058;HTU21D;51644;51.068;5.860;2023-06-10T04:27:39;20.81;61.32
65058;HTU21D;51644;51.068;5.860;2023-06-10T04:28:38;20.85;61.36
65058;HTU21D;51644;51.068;5.860;2023-06-10T04:29:37;20.84;61.27
65058;HTU21D;51644;51.068;5.860;2023-06-10T04:30:36;20.87;61.11
65058;HTU21D;51644;51.068;5.860;2023-06-10T04:31:34;20.87;61.04
65058;HTU21D;51644;51.068;5.860;2023-06-10T04:32:33;20.90;60.96
65058;HTU21D;51644;51.068;5.860;2023-06-10T04:33:32;20.89;60.88
65058;HTU21D;51644;51.068;5.860;2023-06-10T04:34:34;20.91;60.93
65058;HTU21D;51644;51.068;5.860;2023-06-10T04:35:33;20.93;60.86
65058;HTU21D;51644;51.068;5.860;2023-06-10T04:36:33;20.94;60.89
65058;HTU21D;51644;51.068;5.860;2023-06-10T04:37:32;20.95;60.97
65058;HTU21D;51644;51.068;5.860;2023-06-10T04:38:33;20.96;61.02
65058;HTU21D;51644;51.068;5.860;2023-06-10T04:39:32;20.99;61.21
65058;HTU21D;51644;51.068;5.860;2023-06-10T04:40:31;20.98;61.14
65058;HTU21D;51644;51.068;5.860;2023-06-10T04:41:30;20.98;61.04
65058;HTU21D;51644;51.068;5.860;2023-06-10T04:42:28;20.99;60.95
65058;HTU21D;51644;51.068;5.860;2023-06-10T04:43:27;21.01;60.86
65058;HTU21D;51644;51.068;5.860;2023-06-10T04:44:27;21.03;60.81
65058;HTU21D;51644;51.068;5.860;2023-06-10T04:45:26;21.04;60.72
65058;HTU21D;51644;51.068;5.860;2023-06-10T04:46:27;21.06;60.64
65058;HTU21D;51644;51.068;5.860;2023-06-10T04:47:29;21.10;60.55
65058;HTU21D;51644;51.068;5.860;2023-06-10T04:48:27;21.11;60.54
65058;HTU21D;51644;51.068;5.860;2023-06-10T04:49:26;21.13;60.41
65058;HTU21D;51644;51.068;5.860;2023-06-10T04:50:24;21.13;60.43
65058;HTU21D;51644;51.068;5.860;2023-06-10T04:51:24;21.14;60.45
65058;HTU21D;51644;51.068;5.860;2023-06-10T04:52:22;21.13;60.49
65058;HTU21D;51644;51.068;5.860;2023-06-10T04:53:23;21.13;60.50
65058;HTU21D;51644;51.068;5.860;2023-06-10T04:54:22;21.13;60.57
65058;HTU21D;51644;51.068;5.860;2023-06-10T04:55:20;21.15;60.60
65058;HTU21D;51644;51.068;5.860;2023-06-10T04:56:19;21.11;60.67
65058;HTU21D;51644;51.068;5.860;2023-06-10T04:57:18;21.13;60.60
65058;HTU21D;51644;51.068;5.860;2023-06-10T04:58:18;21.13;60.61
65058;HTU21D;51644;51.068;5.860;2023-06-10T04:59:19;21.14;60.55
65058;HTU21D;51644;51.068;5.860;2023-06-10T05:00:20;21.13;60.55
65058;HTU21D;51644;51.068;5.860;2023-06-10T05:01:20;21.15;60.51
65058;HTU21D;51644;51.068;5.860;2023-06-10T05:02:19;21.17;60.57
65058;HTU21D;51644;51.068;5.860;2023-06-10T05:03:30;21.18;60.57
65058;HTU21D;51644;51.068;5.860;2023-06-10T05:04:28;21.20;60.57
65058;HTU21D;51644;51.068;5.860;2023-06-10T05:05:30;21.22;60.67
65058;HTU21D;51644;51.068;5.860;2023-06-10T05:06:29;21.25;60.66
65058;HTU21D;51644;51.068;5.860;2023-06-10T05:07:28;21.28;60.65
65058;HTU21D;51644;51.068;5.860;2023-06-10T05:08:34;21.31;60.58
65058;HTU21D;51644;51.068;5.860;2023-06-10T05:09:33;21.33;60.54
65058;HTU21D;51644;51.068;5.860;2023-06-10T05:10:31;21.35;60.54
65058;HTU21D;51644;51.068;5.860;2023-06-10T05:11:30;21.40;60.54
65058;HTU21D;51644;51.068;5.860;2023-06-10T05:12:29;21.40;60.55
65058;HTU21D;51644;51.068;5.860;2023-06-10T05:13:29;21.44;60.51
65058;HTU21D;51644;51.068;5.860;2023-06-10T05:14:28;21.47;60.49
65058;HTU21D;51644;51.068;5.860;2023-06-10T05:15:27;21.48;60.52
65058;HTU21D;51644;51.068;5.860;2023-06-10T05:16:25;21.51;60.46
65058;HTU21D;51644;51.068;5.860;2023-06-10T05:17:24;21.55;60.38
65058;HTU21D;51644;51.068;5.860;2023-06-10T05:18:23;21.57;60.29
65058;HTU21D;51644;51.068;5.860;2023-06-10T05:19:22;21.61;60.12
65058;HTU21D;51644;51.068;5.860;2023-06-10T05:20:22;21.63;59.96
65058;HTU21D;51644;51.068;5.860;2023-06-10T05:21:20;21.67;59.94
65058;HTU21D;51644;51.068;5.860;2023-06-10T05:22:19;21.70;59.93
65058;HTU21D;51644;51.068;5.860;2023-06-10T05:23:18;21.74;59.84
65058;HTU21D;51644;51.068;5.860;2023-06-10T05:24:16;21.78;59.74
65058;HTU21D;51644;51.068;5.860;2023-06-10T05:25:15;21.82;59.64
65058;HTU21D;51644;51.068;5.860;2023-06-10T05:26:14;21.84;59.53
65058;HTU21D;51644;51.068;5.860;2023-06-10T05:27:12;21.87;59.44
65058;HTU21D;51644;51.068;5.860;2023-06-10T05:28:11;21.89;59.47
65058;HTU21D;51644;51.068;5.860;2023-06-10T05:29:10;21.91;59.45
65058;HTU21D;51644;51.068;5.860;2023-06-10T05:30:10;21.92;59.46
65058;HTU21D;51644;51.068;5.860;2023-06-10T05:31:09;21.95;59.43
65058;HTU21D;51644;51.068;5.860;2023-06-10T05:32:08;21.96;59.41
65058;HTU21D;51644;51.068;5.860;2023-06-10T05:33:07;22.01;59.34
65058;HTU21D;51644;51.068;5.860;2023-06-10T05:34:05;22.02;59.29
65058;HTU21D;51644;51.068;5.860;2023-06-10T05:35:04;22.09;59.09
65058;HTU21D;51644;51.068;5.860;2023-06-10T05:36:03;22.09;59.06
65058;HTU21D;51644;51.068;5.860;2023-06-10T05:37:04;22.13;59.05
65058;HTU21D;51644;51.068;5.860;2023-06-10T05:38:03;22.14;59.01
65058;HTU21D;51644;51.068;5.860;2023-06-10T05:39:02;22.19;58.92
65058;HTU21D;51644;51.068;5.860;2023-06-10T05:40:01;22.23;58.82
65058;HTU21D;51644;51.068;5.860;2023-06-10T05:40:59;22.27;58.84
65058;HTU21D;51644;51.068;5.860;2023-06-10T05:41:58;22.31;58.70
65058;HTU21D;51644;51.068;5.860;2023-06-10T05:42:57;22.36;58.55
65058;HTU21D;51644;51.068;5.860;2023-06-10T05:43:56;22.38;58.37
65058;HTU21D;51644;51.068;5.860;2023-06-10T05:44:54;22.41;58.38
65058;HTU21D;51644;51.068;5.860;2023-06-10T05:45:53;22.46;58.26
65058;HTU21D;51644;51.068;5.860;2023-06-10T05:46:52;22.48;58.19
65058;HTU21D;51644;51.068;5.860;2023-06-10T05:47:50;22.51;58.00
65058;HTU21D;51644;51.068;5.860;2023-06-10T05:48:49;22.55;57.90
65058;HTU21D;51644;51.068;5.860;2023-06-10T05:49:47;22.61;57.84
65058;HTU21D;51644;51.068;5.860;2023-06-10T05:50:49;22.65;57.71
65058;HTU21D;51644;51.068;5.860;2023-06-10T05:51:48;22.69;57.48
65058;HTU21D;51644;51.068;5.860;2023-06-10T05:52:49;22.75;57.32
65058;HTU21D;51644;51.068;5.860;2023-06-10T05:53:48;22.75;57.28
65058;HTU21D;51644;51.068;5.860;2023-06-10T05:54:46;22.79;57.18
65058;HTU21D;51644;51.068;5.860;2023-06-10T05:55:45;22.84;57.08
65058;HTU21D;51644;51.068;5.860;2023-06-10T05:56:44;22.87;57.03
65058;HTU21D;51644;51.068;5.860;2023-06-10T05:57:46;22.92;56.98
65058;HTU21D;51644;51.068;5.860;2023-06-10T05:58:59;22.96;56.99
65058;HTU21D;51644;51.068;5.860;2023-06-10T06:00:04;22.99;56.85
65058;HTU21D;51644;51.068;5.860;2023-06-10T06:01:11;23.01;56.74
65058;HTU21D;51644;51.068;5.860;2023-06-10T06:02:14;23.07;56.62
65058;HTU21D;51644;51.068;5.860;2023-06-10T06:03:17;23.11;56.54
65058;HTU21D;51644;51.068;5.860;2023-06-10T06:04:16;23.14;56.53
65058;HTU21D;51644;51.068;5.860;2023-06-10T06:05:15;23.18;56.37
65058;HTU21D;51644;51.068;5.860;2023-06-10T06:06:13;23.23;56.27
65058;HTU21D;51644;51.068;5.860;2023-06-10T06:07:12;23.28;56.08
65058;HTU21D;51644;51.068;5.860;2023-06-10T06:08:11;23.34;55.97
65058;HTU21D;51644;51.068;5.860;2023-06-10T06:09:09;23.39;55.93
65058;HTU21D;51644;51.068;5.860;2023-06-10T06:10:08;23.43;55.87
65058;HTU21D;51644;51.068;5.860;2023-06-10T06:11:07;23.50;55.85
65058;HTU21D;51644;51.068;5.860;2023-06-10T06:12:06;23.57;55.35
65058;HTU21D;51644;51.068;5.860;2023-06-10T06:13:05;23.65;55.18
65058;HTU21D;51644;51.068;5.860;2023-06-10T06:14:04;23.70;55.01
65058;HTU21D;51644;51.068;5.860;2023-06-10T06:15:03;23.76;54.73
65058;HTU21D;51644;51.068;5.860;2023-06-10T06:16:02;23.86;54.39
65058;HTU21D;51644;51.068;5.860;2023-06-10T06:17:00;23.97;54.15
65058;HTU21D;51644;51.068;5.860;2023-06-10T06:17:59;24.20;53.71